createdAt,value
2023-05-21T00:01:48.448Z,99.90
2023-05-21T00:04:36.664Z,99.90
2023-05-21T00:07:25.497Z,99.90
2023-05-21T00:10:13.830Z,99.90
2023-05-21T00:13:03.341Z,99.90
2023-05-21T00:15:51.544Z,99.90
2023-05-21T00:18:40.318Z,99.90
2023-05-21T00:21:29.745Z,99.90
2023-05-21T00:24:17.868Z,99.90
2023-05-21T00:27:06.171Z,99.90
2023-05-21T00:29:55.631Z,99.90
2023-05-21T00:32:43.826Z,99.90
2023-05-21T00:35:31.949Z,99.90
2023-05-21T00:38:20.043Z,99.90
2023-05-21T00:41:08.137Z,99.90
2023-05-21T00:43:57.241Z,99.90
2023-05-21T00:46:48.904Z,99.90
2023-05-21T00:49:37.093Z,99.90
2023-05-21T00:52:26.984Z,99.90
2023-05-21T00:55:15.512Z,99.90
2023-05-21T00:58:04.501Z,99.90
2023-05-21T01:00:55.850Z,99.90
2023-05-21T01:03:45.508Z,99.90
2023-05-21T01:06:34.796Z,99.90
2023-05-21T01:09:23.141Z,99.90
2023-05-21T01:12:12.146Z,99.90
2023-05-21T01:15:01.045Z,99.90
2023-05-21T01:17:49.893Z,99.90
2023-05-21T01:20:42.928Z,99.90
2023-05-21T01:23:32.474Z,99.90
2023-05-21T01:26:20.585Z,99.90
2023-05-21T01:29:12.919Z,99.90
2023-05-21T01:32:03.975Z,99.90
2023-05-21T01:34:55.531Z,99.90
2023-05-21T01:37:46.216Z,99.90
2023-05-21T01:40:40.750Z,99.90
2023-05-21T01:43:30.528Z,99.90
2023-05-21T01:46:21.028Z,99.90
2023-05-21T01:49:09.799Z,99.90
2023-05-21T01:51:58.116Z,99.90
2023-05-21T01:54:46.215Z,99.90
2023-05-21T01:57:35.674Z,99.90
2023-05-21T02:00:24.596Z,99.90
2023-05-21T02:03:12.860Z,99.90
2023-05-21T02:06:01.122Z,99.90
2023-05-21T02:08:49.272Z,99.90
2023-05-21T02:11:37.414Z,99.90
2023-05-21T02:14:27.041Z,99.90
2023-05-21T02:17:15.173Z,99.90
2023-05-21T02:20:11.508Z,99.90
2023-05-21T02:22:59.667Z,99.90
2023-05-21T02:25:47.799Z,99.90
2023-05-21T02:28:36.212Z,99.90
2023-05-21T02:31:25.695Z,99.90
2023-05-21T02:34:13.860Z,99.90
2023-05-21T02:37:01.988Z,99.90
2023-05-21T02:39:50.070Z,99.90
2023-05-21T02:42:39.701Z,99.90
2023-05-21T02:45:29.848Z,99.90
2023-05-21T02:48:19.322Z,99.90
2023-05-21T02:51:07.438Z,99.90
2023-05-21T02:53:55.550Z,99.90
2023-05-21T02:56:43.666Z,99.90
2023-05-21T02:59:31.791Z,99.90
2023-05-21T03:02:19.996Z,99.90
2023-05-21T03:05:10.331Z,99.90
2023-05-21T03:07:58.492Z,99.90
2023-05-21T03:10:46.616Z,99.90
2023-05-21T03:13:34.769Z,99.90
2023-05-21T03:16:22.977Z,99.90
2023-05-21T03:19:12.395Z,99.90
2023-05-21T03:22:02.254Z,99.90
2023-05-21T03:24:50.343Z,99.90
2023-05-21T03:27:38.684Z,99.90
2023-05-21T03:30:26.800Z,99.90
2023-05-21T03:33:15.592Z,99.90
2023-05-21T03:36:03.712Z,99.90
2023-05-21T03:38:53.167Z,99.90
2023-05-21T03:41:41.296Z,99.90
2023-05-21T03:44:32.433Z,99.90
2023-05-21T03:47:20.636Z,99.90
2023-05-21T03:50:09.416Z,99.90
2023-05-21T03:52:57.524Z,99.90
2023-05-21T03:55:47.301Z,99.90
2023-05-21T03:58:35.720Z,99.90
2023-05-21T04:01:24.168Z,99.90
2023-05-21T04:04:12.358Z,99.90
2023-05-21T04:07:01.033Z,99.90
2023-05-21T04:09:49.242Z,99.90
2023-05-21T04:12:38.827Z,99.90
2023-05-21T04:15:27.629Z,99.90
2023-05-21T04:18:16.920Z,99.90
2023-05-21T04:21:05.247Z,99.90
2023-05-21T04:23:54.016Z,99.90
2023-05-21T04:26:42.414Z,99.90
2023-05-21T04:29:32.001Z,99.90
2023-05-21T04:32:20.890Z,99.90
2023-05-21T04:35:10.138Z,99.90
2023-05-21T04:37:58.194Z,99.90
2023-05-21T04:40:46.551Z,99.90
2023-05-21T04:43:36.868Z,99.90
2023-05-21T04:46:26.818Z,99.90
2023-05-21T04:49:15.374Z,99.90
2023-05-21T04:52:03.450Z,99.90
2023-05-21T04:54:51.875Z,99.90
2023-05-21T04:57:39.940Z,99.90
2023-05-21T05:00:28.050Z,99.90
2023-05-21T05:03:17.593Z,99.90
2023-05-21T05:06:05.929Z,99.90
2023-05-21T05:08:54.451Z,99.90
2023-05-21T05:11:42.509Z,99.90
2023-05-21T05:14:30.627Z,99.90
2023-05-21T05:17:18.753Z,99.90
2023-05-21T05:20:10.025Z,99.90
2023-05-21T05:22:58.168Z,99.90
2023-05-21T05:25:46.352Z,99.90
2023-05-21T05:28:34.453Z,99.90
2023-05-21T05:31:22.561Z,99.90
2023-05-21T05:34:10.808Z,99.90
2023-05-21T05:37:00.253Z,99.90
2023-05-21T05:39:48.386Z,99.90
2023-05-21T05:42:36.498Z,99.90
2023-05-21T05:45:26.597Z,99.90
2023-05-21T05:48:14.750Z,99.90
2023-05-21T05:51:02.858Z,99.90
2023-05-21T05:53:52.276Z,99.90
2023-05-21T05:56:40.483Z,99.90
2023-05-21T05:59:28.558Z,99.90
2023-05-21T06:02:16.672Z,99.90
2023-05-21T06:05:06.840Z,99.90
2023-05-21T06:07:54.943Z,99.90
2023-05-21T06:10:44.413Z,99.90
2023-05-21T06:13:32.826Z,99.90
2023-05-21T06:16:20.946Z,99.90
2023-05-21T06:19:09.123Z,99.90
2023-05-21T06:21:57.268Z,99.90
2023-05-21T06:24:45.439Z,99.90
2023-05-21T06:27:34.875Z,99.90
2023-05-21T06:30:23.010Z,99.90
2023-05-21T06:33:11.475Z,99.90
2023-05-21T06:35:59.725Z,99.90
2023-05-21T06:38:47.941Z,99.90
2023-05-21T06:41:36.264Z,99.90
2023-05-21T06:44:25.696Z,99.90
2023-05-21T06:47:13.805Z,99.90
2023-05-21T06:50:01.882Z,99.90
2023-05-21T06:52:50.174Z,99.90
2023-05-21T06:55:38.450Z,99.90
2023-05-21T06:58:31.185Z,99.90
2023-05-21T07:01:22.394Z,99.90
2023-05-21T07:04:10.679Z,99.90
2023-05-21T07:06:58.881Z,99.90
2023-05-21T07:09:46.981Z,99.90
2023-05-21T07:12:35.081Z,99.90
2023-05-21T07:15:23.150Z,99.90
2023-05-21T07:18:13.397Z,99.90
2023-05-21T07:21:01.658Z,99.90
2023-05-21T07:23:49.840Z,99.90
2023-05-21T07:26:37.951Z,99.90
2023-05-21T07:29:26.080Z,99.90
2023-05-21T07:32:14.142Z,99.90
2023-05-21T07:35:03.627Z,99.90
2023-05-21T07:37:52.206Z,99.90
2023-05-21T07:40:40.533Z,99.90
2023-05-21T07:43:28.746Z,99.90
2023-05-21T07:46:16.952Z,99.90
2023-05-21T07:49:05.049Z,99.90
2023-05-21T07:51:54.477Z,99.90
2023-05-21T07:54:42.607Z,99.90
2023-05-21T07:57:30.704Z,99.90
2023-05-21T08:00:19.162Z,99.90
2023-05-21T08:03:07.404Z,99.90
2023-05-21T08:05:55.701Z,99.90
2023-05-21T08:08:45.246Z,99.90
2023-05-21T08:11:33.375Z,99.90
2023-05-21T08:14:21.544Z,99.90
2023-05-21T08:17:10.132Z,99.90
2023-05-21T08:19:58.219Z,99.90
2023-05-21T08:22:46.346Z,99.90
2023-05-21T08:25:35.908Z,99.90
2023-05-21T08:28:24.293Z,99.90
2023-05-21T08:31:12.556Z,99.90
2023-05-21T08:34:00.820Z,99.90
2023-05-21T08:36:50.000Z,99.90
2023-05-21T08:39:38.163Z,99.90
2023-05-21T08:42:37.061Z,99.90
2023-05-21T08:45:25.613Z,99.90
2023-05-21T08:48:16.028Z,99.90
2023-05-21T08:51:04.251Z,99.90
2023-05-21T08:53:52.439Z,99.90
2023-05-21T08:56:45.705Z,99.90
2023-05-21T08:59:37.008Z,99.90
2023-05-21T09:02:25.979Z,99.90
2023-05-21T09:05:15.638Z,99.90
2023-05-21T09:08:05.616Z,99.90
2023-05-21T09:10:54.012Z,99.90
2023-05-21T09:13:42.823Z,99.90
2023-05-21T09:16:32.265Z,99.90
2023-05-21T09:19:21.432Z,99.90
2023-05-21T09:22:09.594Z,99.90
2023-05-21T09:24:57.721Z,99.90
2023-05-21T09:27:45.908Z,99.90
2023-05-21T09:30:36.010Z,99.90
2023-05-21T09:33:30.050Z,99.90
2023-05-21T09:36:20.075Z,99.90
2023-05-21T09:39:08.836Z,99.90
2023-05-21T09:41:57.698Z,99.90
2023-05-21T09:44:45.985Z,99.90
2023-05-21T09:47:34.125Z,99.90
2023-05-21T09:50:23.833Z,99.90
2023-05-21T09:53:13.262Z,99.90
2023-05-21T09:56:03.681Z,99.90
2023-05-21T09:58:55.656Z,99.90
2023-05-21T10:01:44.191Z,99.90
2023-05-21T10:04:32.686Z,99.90
2023-05-21T10:07:25.890Z,99.90
2023-05-21T10:10:14.890Z,99.90
2023-05-21T10:13:06.800Z,99.90
2023-05-21T10:15:58.520Z,99.90
2023-05-21T10:18:49.252Z,99.90
2023-05-21T10:21:37.613Z,99.90
2023-05-21T10:24:27.546Z,99.90
2023-05-21T10:27:15.696Z,99.90
2023-05-21T10:30:05.898Z,99.90
2023-05-21T10:32:56.705Z,99.90
2023-05-21T10:35:45.992Z,99.90
2023-05-21T10:38:34.921Z,99.90
2023-05-21T10:41:24.577Z,99.90
2023-05-21T10:44:20.981Z,99.90
2023-05-21T10:47:21.925Z,99.90
2023-05-21T10:50:24.937Z,99.90
2023-05-21T10:53:17.233Z,99.90
2023-05-21T10:56:10.376Z,99.90
2023-05-21T10:59:07.194Z,99.90
2023-05-21T11:01:56.957Z,99.40
2023-05-21T11:04:45.945Z,99.70
2023-05-21T11:07:54.135Z,99.90
2023-05-21T11:10:44.537Z,99.90
2023-05-21T11:13:48.734Z,99.00
2023-05-21T11:16:38.391Z,99.50
2023-05-21T11:19:37.088Z,99.40
2023-05-21T11:22:25.861Z,98.70
2023-05-21T11:25:15.514Z,99.10
2023-05-21T11:28:09.419Z,97.70
2023-05-21T11:31:13.528Z,97.90
2023-05-21T11:34:14.544Z,97.80
2023-05-21T11:37:17.794Z,97.30
2023-05-21T11:40:18.966Z,97.40
2023-05-21T11:43:07.109Z,97.60
2023-05-21T11:45:55.690Z,97.10
2023-05-21T11:48:45.508Z,97.30
2023-05-21T11:51:35.001Z,96.80
2023-05-21T11:54:23.792Z,96.70
2023-05-21T11:57:12.056Z,97.00
2023-05-21T12:00:01.474Z,96.80
2023-05-21T12:02:51.308Z,97.40
2023-05-21T12:05:45.202Z,96.40
2023-05-21T12:08:46.670Z,95.80
2023-05-21T12:11:34.857Z,95.10
2023-05-21T12:14:23.197Z,95.20
2023-05-21T12:17:13.534Z,95.00
2023-05-21T12:20:08.434Z,94.60
2023-05-21T12:22:57.925Z,94.80
2023-05-21T12:25:48.786Z,93.80
2023-05-21T12:28:37.480Z,93.80
2023-05-21T12:31:27.472Z,93.30
2023-05-21T12:34:18.679Z,93.50
2023-05-21T12:37:09.561Z,93.40
2023-05-21T12:39:59.336Z,94.00
2023-05-21T12:42:48.828Z,93.90
2023-05-21T12:45:39.382Z,93.40
2023-05-21T12:48:27.816Z,93.80
2023-05-21T12:51:16.206Z,92.90
2023-05-21T12:54:04.399Z,93.70
2023-05-21T12:56:52.629Z,93.60
2023-05-21T12:59:46.555Z,93.00
2023-05-21T13:02:35.554Z,92.60
2023-05-21T13:05:23.902Z,92.70
2023-05-21T13:08:14.184Z,93.10
2023-05-21T13:11:02.658Z,92.70
2023-05-21T13:13:50.772Z,93.10
2023-05-21T13:16:40.254Z,92.30
2023-05-21T13:19:28.538Z,92.30
2023-05-21T13:22:16.800Z,92.60
2023-05-21T13:25:05.257Z,92.20
2023-05-21T13:27:54.295Z,92.10
2023-05-21T13:30:42.618Z,92.20
2023-05-21T13:33:32.401Z,91.50
2023-05-21T13:36:20.570Z,92.00
2023-05-21T13:39:08.725Z,91.10
2023-05-21T13:41:56.822Z,91.00
2023-05-21T13:44:44.927Z,91.00
2023-05-21T13:47:33.277Z,90.80
2023-05-21T13:50:22.755Z,90.80
2023-05-21T13:53:10.893Z,90.60
2023-05-21T13:55:59.036Z,91.00
2023-05-21T13:58:47.189Z,90.70
2023-05-21T14:01:35.342Z,90.60
2023-05-21T14:04:23.539Z,90.20
2023-05-21T14:07:13.095Z,90.00
2023-05-21T14:10:01.633Z,90.10
2023-05-21T14:12:49.791Z,90.40
2023-05-21T14:15:38.632Z,90.80
2023-05-21T14:18:26.958Z,90.10
2023-05-21T14:21:15.042Z,89.30
2023-05-21T14:24:04.699Z,90.20
2023-05-21T14:26:52.842Z,90.50
2023-05-21T14:29:40.950Z,89.60
2023-05-21T14:32:29.112Z,88.70
2023-05-21T14:35:17.518Z,90.20
2023-05-21T14:38:05.607Z,87.80
2023-05-21T14:40:55.271Z,87.00
2023-05-21T14:43:43.385Z,86.10
2023-05-21T14:46:31.758Z,85.30
2023-05-21T14:49:19.904Z,84.90
2023-05-21T14:52:08.335Z,85.60
2023-05-21T14:54:56.489Z,83.10
2023-05-21T14:57:46.165Z,81.60
2023-05-21T15:00:34.697Z,80.10
2023-05-21T15:03:22.935Z,79.90
2023-05-21T15:06:11.119Z,78.60
2023-05-21T15:08:59.180Z,78.90
2023-05-21T15:11:52.313Z,77.60
2023-05-21T15:14:41.937Z,76.50
2023-05-21T15:17:30.220Z,76.30
2023-05-21T15:20:19.732Z,75.60
2023-05-21T15:23:16.614Z,72.90
2023-05-21T15:26:05.482Z,71.90
2023-05-21T15:28:53.600Z,71.70
2023-05-21T15:31:43.043Z,71.00
2023-05-21T15:34:31.239Z,71.60
2023-05-21T15:37:19.655Z,69.90
2023-05-21T15:40:08.798Z,71.40
2023-05-21T15:42:57.068Z,70.50
2023-05-21T15:45:45.236Z,69.30
2023-05-21T15:48:34.947Z,69.10
2023-05-21T15:51:23.651Z,69.10
2023-05-21T15:54:11.929Z,68.00
2023-05-21T15:57:00.109Z,68.60
2023-05-21T15:59:48.296Z,67.30
2023-05-21T16:02:36.485Z,66.60
2023-05-21T16:05:26.642Z,66.80
2023-05-21T16:08:15.204Z,66.00
2023-05-21T16:11:03.407Z,66.30
2023-05-21T16:13:51.470Z,67.10
2023-05-21T16:16:39.774Z,67.80
2023-05-21T16:19:28.140Z,69.60
2023-05-21T16:22:17.695Z,70.70
2023-05-21T16:25:06.338Z,71.80
2023-05-21T16:27:54.460Z,72.40
2023-05-21T16:30:42.588Z,73.40
2023-05-21T16:33:31.037Z,73.00
2023-05-21T16:36:19.153Z,73.30
2023-05-21T16:39:08.604Z,74.00
2023-05-21T16:41:59.627Z,75.90
2023-05-21T16:44:47.971Z,73.50
2023-05-21T16:47:36.232Z,74.10
2023-05-21T16:50:24.665Z,75.50
2023-05-21T16:53:12.813Z,75.80
2023-05-21T16:56:02.323Z,74.80
2023-05-21T16:58:50.533Z,75.80
2023-05-21T17:01:38.706Z,76.90
2023-05-21T17:04:26.830Z,77.10
2023-05-21T17:07:16.293Z,77.70
2023-05-21T17:10:04.466Z,77.00
2023-05-21T17:12:54.035Z,78.40
2023-05-21T17:15:42.282Z,79.20
2023-05-21T17:18:31.278Z,79.60
2023-05-21T17:21:19.570Z,80.30
2023-05-21T17:24:07.893Z,80.00
2023-05-21T17:26:56.018Z,80.90
2023-05-21T17:29:45.488Z,81.60
2023-05-21T17:32:33.594Z,81.50
2023-05-21T17:35:21.733Z,81.70
2023-05-21T17:38:09.843Z,81.40
2023-05-21T17:40:59.043Z,81.30
2023-05-21T17:43:47.225Z,82.00
2023-05-21T17:46:36.707Z,81.90
2023-05-21T17:49:25.259Z,81.70
2023-05-21T17:52:13.471Z,82.60
2023-05-21T17:55:01.914Z,84.40
2023-05-21T17:57:50.188Z,83.20
2023-05-21T18:00:38.373Z,84.10
2023-05-21T18:03:28.038Z,84.50
2023-05-21T18:06:16.674Z,85.10
2023-05-21T18:09:06.207Z,85.20
2023-05-21T18:11:54.359Z,85.90
2023-05-21T18:14:42.593Z,86.50
2023-05-21T18:17:30.706Z,87.10
2023-05-21T18:20:20.278Z,86.60
2023-05-21T18:23:08.413Z,87.10
2023-05-21T18:25:56.815Z,88.50
2023-05-21T18:28:44.924Z,88.20
2023-05-21T18:31:33.145Z,88.70
2023-05-21T18:34:21.891Z,88.80
2023-05-21T18:37:11.452Z,89.60
2023-05-21T18:39:59.799Z,90.00
2023-05-21T18:42:47.976Z,90.30
2023-05-21T18:45:36.093Z,90.00
2023-05-21T18:48:24.200Z,90.00
2023-05-21T18:51:12.409Z,90.20
2023-05-21T18:54:02.048Z,90.40
2023-05-21T18:56:50.143Z,90.50
2023-05-21T18:59:40.923Z,90.80
2023-05-21T19:02:29.753Z,90.90
2023-05-21T19:05:18.011Z,91.10
2023-05-21T19:08:06.453Z,91.20
2023-05-21T19:10:55.928Z,91.60
2023-05-21T19:13:44.036Z,91.90
2023-05-21T19:16:32.369Z,91.80
2023-05-21T19:19:20.522Z,91.30
2023-05-21T19:22:08.852Z,91.30
2023-05-21T19:24:56.938Z,91.30
2023-05-21T19:27:47.765Z,91.20
2023-05-21T19:30:36.483Z,91.30
2023-05-21T19:33:24.967Z,91.50
2023-05-21T19:36:13.238Z,91.20
2023-05-21T19:39:01.476Z,91.00
2023-05-21T19:41:49.790Z,91.60
2023-05-21T19:44:40.556Z,91.70
2023-05-21T19:47:28.850Z,91.80
2023-05-21T19:50:18.019Z,91.90
2023-05-21T19:53:06.232Z,92.30
2023-05-21T19:55:54.389Z,92.50
2023-05-21T19:58:46.969Z,92.30
2023-05-21T20:01:39.522Z,92.40
2023-05-21T20:04:28.198Z,92.70
2023-05-21T20:07:16.523Z,92.90
2023-05-21T20:10:04.810Z,92.80
2023-05-21T20:12:52.981Z,93.10
2023-05-21T20:15:41.094Z,93.30
2023-05-21T20:18:30.560Z,93.80
2023-05-21T20:21:18.744Z,93.50
2023-05-21T20:24:07.346Z,93.90
2023-05-21T20:26:55.911Z,93.60
2023-05-21T20:29:44.650Z,94.10
2023-05-21T20:32:32.796Z,94.30
2023-05-21T20:35:22.237Z,94.70
2023-05-21T20:38:10.368Z,94.80
2023-05-21T20:40:58.519Z,95.00
2023-05-21T20:43:46.786Z,95.20
2023-05-21T20:46:38.292Z,95.30
2023-05-21T20:49:28.160Z,95.40
2023-05-21T20:52:17.629Z,95.70
2023-05-21T20:55:06.237Z,96.00
2023-05-21T20:57:54.360Z,96.50
2023-05-21T21:00:45.249Z,96.70
2023-05-21T21:03:34.338Z,97.20
2023-05-21T21:06:22.634Z,97.50
2023-05-21T21:09:12.128Z,97.70
2023-05-21T21:12:06.086Z,98.10
2023-05-21T21:14:59.984Z,98.30
2023-05-21T21:17:48.118Z,98.00
2023-05-21T21:20:36.467Z,98.10
2023-05-21T21:23:25.036Z,98.70
2023-05-21T21:26:14.482Z,99.10
2023-05-21T21:29:02.598Z,99.10
2023-05-21T21:31:51.262Z,99.30
2023-05-21T21:34:39.364Z,99.70
2023-05-21T21:37:29.409Z,99.90
2023-05-21T21:40:17.593Z,99.90
2023-05-21T21:43:07.057Z,99.90
2023-05-21T21:45:55.203Z,99.90
2023-05-21T21:48:43.345Z,99.90
2023-05-21T21:51:31.643Z,99.90
2023-05-21T21:54:19.784Z,99.90
2023-05-21T21:57:07.925Z,99.90
2023-05-21T21:59:57.408Z,99.90
2023-05-21T22:02:46.897Z,99.90
2023-05-21T22:05:35.677Z,99.90
2023-05-21T22:08:25.322Z,99.90
2023-05-21T22:11:13.442Z,99.90
2023-05-21T22:14:02.507Z,99.90
2023-05-21T22:16:53.158Z,99.90
2023-05-21T22:19:41.926Z,99.90
2023-05-21T22:22:30.078Z,99.90
2023-05-21T22:25:18.246Z,99.90
2023-05-21T22:28:06.511Z,99.90
2023-05-21T22:30:54.777Z,99.90
2023-05-21T22:33:44.331Z,99.90
2023-05-21T22:36:32.431Z,99.90
2023-05-21T22:39:20.535Z,99.90
2023-05-21T22:42:08.955Z,99.90
2023-05-21T22:44:57.099Z,99.90
2023-05-21T22:47:45.271Z,99.90
2023-05-21T22:50:35.035Z,99.90
2023-05-21T22:53:23.615Z,99.90
2023-05-21T22:56:11.716Z,99.90
2023-05-21T22:58:59.856Z,99.90
2023-05-21T23:01:48.049Z,99.90
2023-05-21T23:04:43.931Z,99.90
2023-05-21T23:07:34.128Z,99.90
2023-05-21T23:10:22.250Z,99.90
2023-05-21T23:13:10.661Z,99.90
2023-05-21T23:15:59.493Z,99.90
2023-05-21T23:18:48.671Z,99.90
2023-05-21T23:21:36.928Z,99.80
2023-05-21T23:24:28.647Z,99.80
2023-05-21T23:27:16.788Z,99.90
2023-05-21T23:30:05.249Z,99.80
2023-05-21T23:32:53.363Z,99.70
2023-05-21T23:35:41.755Z,99.90
2023-05-21T23:38:29.871Z,99.90
2023-05-21T23:41:19.379Z,99.90
2023-05-21T23:44:07.489Z,99.90
2023-05-21T23:46:56.056Z,99.90
2023-05-21T23:49:44.157Z,99.90
2023-05-21T23:52:36.530Z,99.90
2023-05-21T23:55:24.651Z,99.90
2023-05-21T23:58:14.237Z,99.90
